Enterprise, Kentucky
Current Conditions -  °F | °C
As of 6:10 AM on Wednesday 26 Nov 2014 (Local Time) from KSYM Reporting Station
Overcast Overcast  
Wind Chill: 30°   Ceiling: 7500
Heat Index: 34°   Visibility: 10mi
Dew Point: 28°   Wind: 5mph
Humidity: 81%   Direction: 310°NW
Pressure: 30.07"   Gusts: NA
Location:  38.3543°N, 83.1837°W
Report Text: KSYM 261110Z AUTO 31004KT 10SM BKN075 OVC100 01/M02 A3007 RMK AO2
Loading
Personal Weather Stations






























Interactive Weather Map New forecast layout! Learn more

10-Day Weather Forecast

Advertisements
Track Severe Weather on mobile